createdAt,value
2018-12-20T00:01:01.895Z,49.43
2018-12-20T00:06:07.162Z,46.77
2018-12-20T00:11:13.914Z,49.83
2018-12-20T00:16:19.073Z,41.83
2018-12-20T00:21:24.215Z,49.23
2018-12-20T00:26:29.199Z,44.37
2018-12-20T00:31:34.151Z,44.37
2018-12-20T00:36:39.027Z,50.73
2018-12-20T00:41:43.880Z,54.03
2018-12-20T00:46:48.829Z,54.60
2018-12-20T00:57:04.204Z,52.03
2018-12-20T01:02:09.369Z,54.73
2018-12-20T01:07:14.627Z,56.53
2018-12-20T01:12:19.708Z,56.87
2018-12-20T01:17:26.725Z,58.97
2018-12-20T01:22:31.678Z,45.30
2018-12-20T01:27:37.021Z,52.00
2018-12-20T01:32:42.015Z,52.80
2018-12-20T01:37:46.882Z,53.57
2018-12-20T01:42:52.412Z,47.60
2018-12-20T01:47:57.268Z,51.70
2018-12-20T01:53:03.300Z,59.30
2018-12-20T01:58:08.521Z,61.07
2018-12-20T02:03:13.398Z,57.57
2018-12-20T02:08:18.413Z,53.10
2018-12-20T02:18:33.487Z,52.47
2018-12-20T02:23:39.083Z,52.10
2018-12-20T02:28:44.048Z,60.23
2018-12-20T02:33:49.342Z,56.60
2018-12-20T02:38:54.533Z,58.90
2018-12-20T02:43:59.557Z,53.07
2018-12-20T02:49:05.373Z,62.17
2018-12-20T02:54:10.465Z,59.20
2018-12-20T02:59:15.729Z,58.73
2018-12-20T03:04:21.937Z,59.83
2018-12-20T03:09:26.985Z,56.90
2018-12-20T03:14:31.976Z,68.63
2018-12-20T03:19:37.599Z,62.50
2018-12-20T03:24:42.803Z,53.07
2018-12-20T03:29:47.973Z,58.13
2018-12-20T03:34:53.270Z,59.87
2018-12-20T03:39:58.491Z,52.90
2018-12-20T03:45:03.570Z,55.57
2018-12-20T03:50:12.296Z,58.63
2018-12-20T03:55:17.808Z,50.60
2018-12-20T04:00:23.731Z,56.23
2018-12-20T04:05:28.678Z,47.17
2018-12-20T04:10:33.663Z,54.07
2018-12-20T04:15:38.850Z,47.30
2018-12-20T04:20:43.958Z,43.90
2018-12-20T04:25:48.983Z,44.73
2018-12-20T04:30:53.878Z,41.00
2018-12-20T04:35:59.458Z,42.90
2018-12-20T04:41:05.662Z,46.90
2018-12-20T04:46:10.681Z,39.67
2018-12-20T04:51:16.963Z,46.33
2018-12-20T04:56:22.272Z,39.00
2018-12-20T05:01:27.591Z,40.37
2018-12-20T05:06:33.705Z,38.83
2018-12-20T05:11:38.561Z,42.77
2018-12-20T05:16:43.899Z,45.70
2018-12-20T05:21:49.061Z,43.30
2018-12-20T05:26:58.389Z,36.67
2018-12-20T05:32:03.658Z,38.27
2018-12-20T05:37:08.834Z,35.43
2018-12-20T05:42:13.976Z,34.60
2018-12-20T05:47:19.269Z,39.33
2018-12-20T05:52:24.617Z,39.20
2018-12-20T05:57:29.481Z,38.33
2018-12-20T06:02:34.626Z,39.83
2018-12-20T06:07:40.587Z,42.33
2018-12-20T06:12:45.626Z,43.00
2018-12-20T06:17:51.112Z,44.30
2018-12-20T06:28:06.239Z,40.43
2018-12-20T06:33:11.127Z,40.80
2018-12-20T06:38:15.950Z,39.80
2018-12-20T06:43:20.960Z,45.27
2018-12-20T06:48:25.730Z,36.17
2018-12-20T06:53:30.634Z,32.97
2018-12-20T06:58:35.486Z,35.53
2018-12-20T07:03:40.952Z,34.63
2018-12-20T07:08:45.785Z,29.80
2018-12-20T07:13:50.652Z,26.87
2018-12-20T07:18:55.535Z,26.97
2018-12-20T07:24:00.379Z,34.60
2018-12-20T07:29:05.650Z,37.40
2018-12-20T07:34:10.568Z,35.67
2018-12-20T07:39:15.436Z,34.33
2018-12-20T07:44:21.644Z,29.77
2018-12-20T07:49:26.498Z,39.13
2018-12-20T07:54:31.340Z,34.53
2018-12-20T07:59:36.302Z,31.67
2018-12-20T08:04:41.237Z,33.57
2018-12-20T08:09:46.061Z,35.57
2018-12-20T08:14:51.005Z,33.50
2018-12-20T08:19:55.875Z,32.23
2018-12-20T08:25:01.031Z,32.47
2018-12-20T08:30:09.539Z,28.77
2018-12-20T08:35:14.495Z,28.80
2018-12-20T08:40:19.410Z,28.37
2018-12-20T08:45:24.861Z,51.03
2018-12-20T08:50:30.958Z,31.53
2018-12-20T08:55:36.536Z,42.73
2018-12-20T09:00:41.761Z,37.67
2018-12-20T09:05:46.867Z,41.63
2018-12-20T09:10:51.705Z,40.73
2018-12-20T09:15:56.882Z,44.87
2018-12-20T09:21:02.911Z,44.47
2018-12-20T09:26:07.849Z,49.57
2018-12-20T09:31:13.285Z,42.43
2018-12-20T09:36:18.190Z,43.83
2018-12-20T09:41:23.798Z,41.53
2018-12-20T09:46:28.779Z,39.60
2018-12-20T09:51:33.729Z,35.33
2018-12-20T09:56:39.383Z,46.60
2018-12-20T10:01:46.510Z,37.17
2018-12-20T10:06:52.039Z,44.63
2018-12-20T10:11:57.004Z,48.50
2018-12-20T10:17:02.344Z,41.57
2018-12-20T10:22:08.000Z,39.50
2018-12-20T10:27:13.070Z,47.17
2018-12-20T10:32:17.990Z,48.30
2018-12-20T10:37:22.845Z,49.20
2018-12-20T10:42:27.700Z,37.47
2018-12-20T10:47:33.339Z,48.47
2018-12-20T10:52:38.727Z,45.37
2018-12-20T10:57:43.679Z,41.80
2018-12-20T11:04:59.179Z,44.77
2018-12-20T11:10:09.798Z,41.40
2018-12-20T11:15:15.861Z,37.67
2018-12-20T11:20:21.360Z,38.83
2018-12-20T11:25:27.205Z,39.70
2018-12-20T11:30:34.174Z,47.60
2018-12-20T11:35:39.054Z,45.67
2018-12-20T11:40:44.031Z,49.17
2018-12-20T11:45:49.323Z,43.60
2018-12-20T11:50:55.995Z,41.97
2018-12-20T11:56:01.242Z,38.17
2018-12-20T12:01:07.741Z,40.53
2018-12-20T12:06:14.319Z,48.50
2018-12-20T12:11:20.454Z,53.60
2018-12-20T12:16:25.738Z,35.90
2018-12-20T12:21:30.625Z,25.80
2018-12-20T12:26:36.200Z,29.73
2018-12-20T12:31:41.076Z,33.83
2018-12-20T12:36:46.638Z,27.10
2018-12-20T12:41:51.569Z,22.10
2018-12-20T12:46:56.486Z,26.37
2018-12-20T12:52:01.359Z,23.10
2018-12-20T12:57:07.164Z,19.77
2018-12-20T13:02:12.414Z,13.13
2018-12-20T13:07:17.673Z,17.50
2018-12-20T13:12:22.832Z,16.23
2018-12-20T13:17:27.683Z,16.23
2018-12-20T13:22:32.737Z,13.80
2018-12-20T13:27:37.583Z,9.50
2018-12-20T13:32:42.421Z,10.47
2018-12-20T13:37:47.361Z,12.33
2018-12-20T13:42:52.836Z,7.40
2018-12-20T13:47:57.653Z,7.50
2018-12-20T13:58:18.981Z,5.57
2018-12-20T14:03:26.011Z,7.50
2018-12-20T14:08:30.917Z,6.10
2018-12-20T14:13:35.779Z,6.10
2018-12-20T14:18:41.458Z,7.30
2018-12-20T14:23:46.884Z,5.30
2018-12-20T14:28:52.755Z,4.33
2018-12-20T14:33:58.365Z,6.50
2018-12-20T14:39:04.866Z,6.47
2018-12-20T14:44:10.870Z,3.63
2018-12-20T14:49:15.771Z,6.97
2018-12-20T14:54:20.746Z,5.53
2018-12-20T15:04:35.829Z,5.43
2018-12-20T15:09:41.530Z,4.03
2018-12-20T15:14:46.618Z,4.00
2018-12-20T15:19:51.601Z,5.53
2018-12-20T15:24:56.485Z,4.13
2018-12-20T15:30:11.099Z,3.93
2018-12-20T15:35:16.069Z,6.37
2018-12-20T15:40:21.283Z,5.77
2018-12-20T15:45:26.358Z,4.67
2018-12-20T15:50:33.841Z,5.10
2018-12-20T15:55:39.772Z,6.37
2018-12-20T16:00:45.074Z,4.80
2018-12-20T16:05:50.899Z,5.37
2018-12-20T16:10:55.848Z,5.40
2018-12-20T16:16:01.018Z,5.10
2018-12-20T16:21:07.014Z,6.10
2018-12-20T16:26:13.572Z,5.10
2018-12-20T16:31:19.204Z,9.30
2018-12-20T16:36:25.730Z,5.43
2018-12-20T16:41:30.831Z,7.73
2018-12-20T16:46:35.978Z,7.50
2018-12-20T16:51:41.659Z,9.50
2018-12-20T16:56:46.620Z,6.13
2018-12-20T17:07:02.864Z,6.73
2018-12-20T17:12:07.772Z,6.83
2018-12-20T17:17:14.461Z,4.27
2018-12-20T17:22:19.711Z,6.67
2018-12-20T17:27:26.332Z,4.07
2018-12-20T17:32:32.971Z,5.73
2018-12-20T17:37:40.633Z,5.90
2018-12-20T17:42:46.144Z,8.43
2018-12-20T17:47:51.784Z,7.30
2018-12-20T17:52:57.330Z,6.33
2018-12-20T17:58:03.543Z,6.50
2018-12-20T18:03:08.845Z,4.97
2018-12-20T18:08:16.611Z,13.17
2018-12-20T18:13:22.739Z,6.77
2018-12-20T18:18:27.916Z,5.57
2018-12-20T18:23:33.528Z,4.33
2018-12-20T18:28:39.467Z,5.53
2018-12-20T18:33:45.749Z,6.97
2018-12-20T18:38:51.227Z,6.57
2018-12-20T18:43:56.246Z,4.53
2018-12-20T18:49:06.371Z,4.40
2018-12-20T18:54:12.918Z,3.93
2018-12-20T18:59:17.993Z,8.20
2018-12-20T19:04:24.101Z,6.90
2018-12-20T19:09:29.560Z,6.23
2018-12-20T19:14:35.574Z,4.30
2018-12-20T19:19:40.800Z,4.60
2018-12-20T19:24:50.634Z,5.73
2018-12-20T19:29:55.804Z,3.63
2018-12-20T19:35:05.926Z,4.03
2018-12-20T19:40:13.587Z,3.60
2018-12-20T19:45:21.417Z,4.30
2018-12-20T19:50:29.985Z,4.00
2018-12-20T19:55:35.782Z,5.70
2018-12-20T20:00:43.943Z,4.53
2018-12-20T20:05:50.508Z,4.53
2018-12-20T20:10:56.019Z,4.60
2018-12-20T20:16:03.568Z,3.50
2018-12-20T20:21:10.412Z,4.13
2018-12-20T20:26:15.558Z,6.63
2018-12-20T20:31:21.687Z,2.90
2018-12-20T20:36:28.498Z,3.50
2018-12-20T20:41:38.368Z,2.77
2018-12-20T20:46:46.270Z,3.47
2018-12-20T20:51:52.729Z,4.60
2018-12-20T20:57:00.984Z,3.50
2018-12-20T21:02:09.551Z,3.90
2018-12-20T21:07:20.971Z,2.43
2018-12-20T21:12:28.776Z,3.47
2018-12-20T21:17:35.022Z,3.47
2018-12-20T21:22:40.926Z,4.00
2018-12-20T21:27:46.362Z,3.00
2018-12-20T21:32:52.600Z,4.20
2018-12-20T21:37:58.126Z,2.90
2018-12-20T21:43:04.652Z,3.77
2018-12-20T21:48:09.614Z,2.57
2018-12-20T21:53:15.423Z,4.03
2018-12-20T21:58:20.904Z,3.30
2018-12-20T22:03:26.498Z,2.83
2018-12-20T22:08:32.667Z,5.93
2018-12-20T22:13:37.705Z,3.40
2018-12-20T22:18:42.770Z,4.50
2018-12-20T22:23:48.538Z,3.43
2018-12-20T22:28:55.029Z,3.23
2018-12-20T22:34:00.027Z,3.77
2018-12-20T22:39:08.034Z,2.80
2018-12-20T22:44:13.391Z,3.63
2018-12-20T22:49:18.203Z,2.80
2018-12-20T22:54:23.156Z,3.33
2018-12-20T22:59:28.936Z,2.43
2018-12-20T23:04:34.858Z,2.70
2018-12-20T23:09:40.127Z,4.90
2018-12-20T23:14:46.460Z,3.73
2018-12-20T23:19:52.762Z,3.50
2018-12-20T23:24:57.595Z,4.20
2018-12-20T23:30:05.811Z,3.13
2018-12-20T23:35:11.576Z,4.60
2018-12-20T23:40:17.615Z,2.57
2018-12-20T23:45:23.112Z,2.30
2018-12-20T23:50:28.019Z,2.90
2018-12-20T23:55:34.141Z,3.40
